Bf Caroda — V2CV5 — position and weather

sailwx.info

Track history (hours):
 
Tides and Currents Weather Stations Pressure Air Temp Water Temp Dewpoint Dewpoint Depression Visibility Wind Speed Wind Dir Waves Ship Positions

Bf Caroda

Last reported at 2016-Jun-24 15:30 UTC. Time now 2016-Jun-24 22:20 UTC.
Position N 43°17' E 005°12'.

Length 134 m; draft 6.8 m.

Type: Ship (hazmat cat A). MMSI: 304678000.

Date/timePositionNaut miles runAvg speedWind from/ knotsBaromVisibWave heightAir tempDewpointWater temp
2016-Jun-24 15:30N 43°17' E 005°12'22 7.2
2016-Jun-24 12:24N 42°55' E 005°05'1 0.5
2016-Jun-24 10:27N 42°56' E 005°04'1 0.6
2016-Jun-24 09:14N 42°56' E 005°03'1 0.6
2016-Jun-24 07:31N 42°56' E 005°02'1 0.2
2016-Jun-24 02:33N 42°56' E 005°03'1914.6
2016-Jun-24 01:14N 42°58' E 005°29'1214.5
2016-Jun-24 00:24N 42°53' E 005°44'1914.4
2016-Jun-23 23:04N 42°46' E 006°09'5512.1
2016-Jun-23 18:32N 43°10' E 007°16'12 8.1
2016-Jun-23 17:07N 43°19' E 007°26'810.7
2016-Jun-23 16:22N 43°24' E 007°34'1214.7
2016-Jun-23 15:33N 43°32' E 007°47'1515.0
2016-Jun-23 14:33N 43°42' E 008°02'1515.0
2016-Jun-23 13:33N 43°52' E 008°18'1514.6
2016-Jun-23 12:33N 44°02' E 008°32'1414.5
2016-Jun-23 11:33N 44°12' E 008°47'1313.0
2016-Jun-23 10:34N 44°23' E 008°57'2 2.1
2016-Jun-23 09:33N 44°24' E 008°54'0 0.0
2016-Jun-23 08:33N 44°24' E 008°54'0 0.0
2016-Jun-23 07:32N 44°24' E 008°54'0 0.0
2016-Jun-23 05:31N 44°24' E 008°54'0 0.0
2016-Jun-23 04:31N 44°24' E 008°54'0 0.0
2016-Jun-23 03:31N 44°24' E 008°54'0 0.0
2016-Jun-23 02:33N 44°24' E 008°54'0 0.0
2016-Jun-23 01:33N 44°24' E 008°54'0 0.0
2016-Jun-23 00:32N 44°24' E 008°54'0 0.0
2016-Jun-22 23:32N 44°24' E 008°54'0 0.0
2016-Jun-22 22:31N 44°24' E 008°54'0 0.0
2016-Jun-22 21:31N 44°24' E 008°54'0 0.0
2016-Jun-22 20:31N 44°24' E 008°54'0 0.0
2016-Jun-22 19:30N 44°24' E 008°54'0 0.0
2016-Jun-22 18:33N 44°24' E 008°54'0 0.0
2016-Jun-22 17:32N 44°24' E 008°54'0 0.0
2016-Jun-22 16:32N 44°24' E 008°54'0 0.0
2016-Jun-22 15:34N 44°24' E 008°54'5 4.6
2016-Jun-22 14:34N 44°21' E 008°59'1414.3
2016-Jun-22 13:33N 44°10' E 009°11'1515.3
2016-Jun-22 12:33N 44°01' E 009°28'1413.7
2016-Jun-22 11:33N 43°57' E 009°46'10 9.5
2016-Jun-22 10:33N 44°06' E 009°51'0 0.1
2016-Jun-22 09:33N 44°06' E 009°51'0 0.0
2016-Jun-22 08:33N 44°06' E 009°51'0 0.0
2016-Jun-22 07:34N 44°06' E 009°51'0 0.0
2016-Jun-22 06:34N 44°06' E 009°51'0 0.0
2016-Jun-22 05:33N 44°06' E 009°51'0 0.0
2016-Jun-22 04:33N 44°06' E 009°51'1 1.3
2016-Jun-22 03:33N 44°05' E 009°51'2 2.2
2016-Jun-22 02:31N 44°04' E 009°53'0 0.1
2016-Jun-22 01:34N 44°04' E 009°53'0 0.0
2016-Jun-22 00:33N 44°04' E 009°53'0 0.0
2016-Jun-21 23:30N 44°04' E 009°53'0 0.1
2016-Jun-21 22:32N 44°04' E 009°53'0 0.0
2016-Jun-21 21:32N 44°04' E 009°53'0 0.1
2016-Jun-21 20:31N 44°04' E 009°53'0 0.0
2016-Jun-21 19:31N 44°04' E 009°53'0 0.0
2016-Jun-21 18:33N 44°04' E 009°53'0 0.0
2016-Jun-21 17:33N 44°04' E 009°53'0 0.0
2016-Jun-21 16:33N 44°04' E 009°53'0 0.0
2016-Jun-21 15:32N 44°04' E 009°53'0 0.0
2016-Jun-21 14:29N 44°04' E 009°53'0 0.0
2016-Jun-21 13:31N 44°04' E 009°53'0 0.0
2016-Jun-21 12:31N 44°04' E 009°53'0 0.0
2016-Jun-21 11:33N 44°04' E 009°53'0 0.0
2016-Jun-21 10:33N 44°04' E 009°53'0 0.0
2016-Jun-21 09:33N 44°04' E 009°53'0 0.1
2016-Jun-21 08:32N 44°04' E 009°53'0 0.1
2016-Jun-21 07:32N 44°04' E 009°53'0 0.0
2016-Jun-21 06:31N 44°04' E 009°53'0 0.0
2016-Jun-21 04:33N 44°04' E 009°53'0 0.0
2016-Jun-21 03:33N 44°04' E 009°53'0 0.0
2016-Jun-21 02:33N 44°04' E 009°53'0 0.0
2016-Jun-21 01:32N 44°04' E 009°53'0 0.0
2016-Jun-21 00:32N 44°04' E 009°53'0 0.0
2016-Jun-20 23:28N 44°04' E 009°53'0 0.0
2016-Jun-20 22:31N 44°04' E 009°53'0 0.0
2016-Jun-20 21:33N 44°04' E 009°53'0 0.0
2016-Jun-20 20:33N 44°04' E 009°53'0 0.1
2016-Jun-20 19:32N 44°04' E 009°53'0 0.0
2016-Jun-20 18:32N 44°04' E 009°53'0 0.0
2016-Jun-20 17:32N 44°04' E 009°53'0 0.1
2016-Jun-20 16:31N 44°04' E 009°53'0 0.1
2016-Jun-20 15:28N 44°04' E 009°53'0 0.1
2016-Jun-20 14:33N 44°04' E 009°53'0 0.0
2016-Jun-20 13:33N 44°04' E 009°53'0 0.0
2016-Jun-20 12:32N 44°04' E 009°53'0 0.0
2016-Jun-20 11:29N 44°04' E 009°53'0 0.0
2016-Jun-20 10:32N 44°04' E 009°53'0 0.1
2016-Jun-20 09:31N 44°04' E 009°53'0 0.0
2016-Jun-20 08:31N 44°04' E 009°53'0 0.1
2016-Jun-20 07:33N 44°04' E 009°53'0 0.0
2016-Jun-20 06:33N 44°04' E 009°53'0 0.0
2016-Jun-20 05:26N 44°04' E 009°53'0 0.1
2016-Jun-20 04:32N 44°04' E 009°53'0 0.0
2016-Jun-20 03:32N 44°04' E 009°53'0 0.0
2016-Jun-20 02:28N 44°04' E 009°53'0 0.0
2016-Jun-20 01:31N 44°04' E 009°53'0 0.0
2016-Jun-20 00:33N 44°04' E 009°53'0 0.0
2016-Jun-19 23:33N 44°04' E 009°53'0 0.1
2016-Jun-19 22:32N 44°04' E 009°53'0 0.1
2016-Jun-19 21:32N 44°04' E 009°53'0 0.1
2016-Jun-19 20:31N 44°04' E 009°53'0 0.0
2016-Jun-19 19:28N 44°04' E 009°53'0 0.0
2016-Jun-19 18:31N 44°04' E 009°53'0 0.0
2016-Jun-19 17:33N 44°04' E 009°53'0 0.1
2016-Jun-19 16:33N 44°04' E 009°53'0 0.0
2016-Jun-19 15:32N 44°04' E 009°53'0 0.1
2016-Jun-19 14:32N 44°04' E 009°53'0 0.0
2016-Jun-19 13:31N 44°04' E 009°53'0 0.1
2016-Jun-19 12:31N 44°04' E 009°53'0 0.0
2016-Jun-19 11:31N 44°04' E 009°53'0 0.0
2016-Jun-19 10:33N 44°04' E 009°53'0 0.0
2016-Jun-19 09:33N 44°04' E 009°53'0 0.0
2016-Jun-19 08:32N 44°04' E 009°53'0 0.0
2016-Jun-19 07:32N 44°04' E 009°53'0 0.0
2016-Jun-19 06:31N 44°04' E 009°53'0 0.0
2016-Jun-19 05:31N 44°04' E 009°53'0 0.0
2016-Jun-19 04:31N 44°04' E 009°53'0 0.0
2016-Jun-19 03:33N 44°04' E 009°53'0 0.0
2016-Jun-19 02:33N 44°04' E 009°53'0 0.0
2016-Jun-19 01:32N 44°04' E 009°53'0 0.0
2016-Jun-19 00:29N 44°04' E 009°53'0 0.1
2016-Jun-18 23:31N 44°04' E 009°53'0 0.0
2016-Jun-18 22:31N 44°04' E 009°53'0 0.1
2016-Jun-18 21:34N 44°04' E 009°53'0 0.1
2016-Jun-18 20:33N 44°04' E 009°53'0 0.0
2016-Jun-18 19:33N 44°04' E 009°53'0 0.0
2016-Jun-18 18:32N 44°04' E 009°53'0 0.0
2016-Jun-18 17:32N 44°04' E 009°53'0 0.0
2016-Jun-18 16:28N 44°04' E 009°53'0 0.0
2016-Jun-18 15:31N 44°04' E 009°53'0 0.0
2016-Jun-18 14:33N 44°04' E 009°53'0 0.0
2016-Jun-18 13:33N 44°04' E 009°53'0 0.0
2016-Jun-18 12:33N 44°04' E 009°53'0 0.0
2016-Jun-18 11:29N 44°04' E 009°53'0 0.0
2016-Jun-18 10:32N 44°04' E 009°53'0 0.0
2016-Jun-18 09:31N 44°04' E 009°53'0 0.0
2016-Jun-18 08:31N 44°04' E 009°53'0 0.1
2016-Jun-18 07:33N 44°04' E 009°53'0 0.1
2016-Jun-18 06:30N 44°04' E 009°53'0 0.0
2016-Jun-18 05:33N 44°04' E 009°53'0 0.0
2016-Jun-18 04:29N 44°04' E 009°53'1 1.4
2016-Jun-18 03:33N 44°02' E 009°54'1312.7
2016-Jun-18 02:34N 43°51' E 010°02'1413.7
2016-Jun-18 01:34N 43°40' E 009°51'1514.6
2016-Jun-18 00:34N 43°30' E 009°37'1514.6
2016-Jun-17 23:33N 43°19' E 009°22'1514.8
2016-Jun-17 22:34N 43°08' E 009°09'1413.6
2016-Jun-17 21:33N 42°58' E 008°56'1615.4
2016-Jun-17 20:32N 42°47' E 008°41'1515.1
2016-Jun-17 19:34N 42°39' E 008°25'1514.6
2016-Jun-17 18:33N 42°27' E 008°13'25814.1
2016-Jun-17 00:17N 39°24' E 004°12'31 9.7
2016-Jun-16 21:08N 39°05' E 003°42'2515.3
2016-Jun-16 19:32N 38°49' E 003°18'1212.0
2016-Jun-16 18:33N 38°58' E 003°28'1110.3
2016-Jun-16 17:27N 38°50' E 003°17'1 1.6
2016-Jun-16 16:33N 38°49' E 003°16'  
Track history (hours):
 
Tides and Currents Weather Stations Pressure Air Temp Water Temp Dewpoint Dewpoint Depression Visibility Wind Speed Wind Dir Waves Ship Positions

Bf Caroda

Last reported at 2016-Jun-24 15:30 UTC. Time now 2016-Jun-24 22:20 UTC.
Position N 43°17' E 005°12'.

Length 134 m; draft 6.8 m.

Type: Ship (hazmat cat A). MMSI: 304678000.

Date/timePositionNaut miles runAvg speedWind from/ knotsBaromVisibWave heightAir tempDewpointWater temp
2016-Jun-24 15:30N 43°17' E 005°12'22 7.2
2016-Jun-24 12:24N 42°55' E 005°05'1 0.5
2016-Jun-24 10:27N 42°56' E 005°04'1 0.6
2016-Jun-24 09:14N 42°56' E 005°03'1 0.6
2016-Jun-24 07:31N 42°56' E 005°02'1 0.2
2016-Jun-24 02:33N 42°56' E 005°03'1914.6
2016-Jun-24 01:14N 42°58' E 005°29'1214.5
2016-Jun-24 00:24N 42°53' E 005°44'1914.4
2016-Jun-23 23:04N 42°46' E 006°09'5512.1
2016-Jun-23 18:32N 43°10' E 007°16'12 8.1
2016-Jun-23 17:07N 43°19' E 007°26'810.7
2016-Jun-23 16:22N 43°24' E 007°34'1214.7
2016-Jun-23 15:33N 43°32' E 007°47'1515.0
2016-Jun-23 14:33N 43°42' E 008°02'1515.0
2016-Jun-23 13:33N 43°52' E 008°18'1514.6
2016-Jun-23 12:33N 44°02' E 008°32'1414.5
2016-Jun-23 11:33N 44°12' E 008°47'1313.0
2016-Jun-23 10:34N 44°23' E 008°57'2 2.1
2016-Jun-23 09:33N 44°24' E 008°54'0 0.0
2016-Jun-23 08:33N 44°24' E 008°54'0 0.0
2016-Jun-23 07:32N 44°24' E 008°54'0 0.0
2016-Jun-23 05:31N 44°24' E 008°54'0 0.0
2016-Jun-23 04:31N 44°24' E 008°54'0 0.0
2016-Jun-23 03:31N 44°24' E 008°54'0 0.0
2016-Jun-23 02:33N 44°24' E 008°54'0 0.0
2016-Jun-23 01:33N 44°24' E 008°54'0 0.0
2016-Jun-23 00:32N 44°24' E 008°54'0 0.0
2016-Jun-22 23:32N 44°24' E 008°54'0 0.0
2016-Jun-22 22:31N 44°24' E 008°54'0 0.0
2016-Jun-22 21:31N 44°24' E 008°54'0 0.0
2016-Jun-22 20:31N 44°24' E 008°54'0 0.0
2016-Jun-22 19:30N 44°24' E 008°54'0 0.0
2016-Jun-22 18:33N 44°24' E 008°54'0 0.0
2016-Jun-22 17:32N 44°24' E 008°54'0 0.0
2016-Jun-22 16:32N 44°24' E 008°54'0 0.0
2016-Jun-22 15:34N 44°24' E 008°54'5 4.6
2016-Jun-22 14:34N 44°21' E 008°59'1414.3
2016-Jun-22 13:33N 44°10' E 009°11'1515.3
2016-Jun-22 12:33N 44°01' E 009°28'1413.7
2016-Jun-22 11:33N 43°57' E 009°46'10 9.5
2016-Jun-22 10:33N 44°06' E 009°51'0 0.1
2016-Jun-22 09:33N 44°06' E 009°51'0 0.0
2016-Jun-22 08:33N 44°06' E 009°51'0 0.0
2016-Jun-22 07:34N 44°06' E 009°51'0 0.0
2016-Jun-22 06:34N 44°06' E 009°51'0 0.0
2016-Jun-22 05:33N 44°06' E 009°51'0 0.0
2016-Jun-22 04:33N 44°06' E 009°51'1 1.3
2016-Jun-22 03:33N 44°05' E 009°51'2 2.2
2016-Jun-22 02:31N 44°04' E 009°53'0 0.1
2016-Jun-22 01:34N 44°04' E 009°53'0 0.0
2016-Jun-22 00:33N 44°04' E 009°53'0 0.0
2016-Jun-21 23:30N 44°04' E 009°53'0 0.1
2016-Jun-21 22:32N 44°04' E 009°53'0 0.0
2016-Jun-21 21:32N 44°04' E 009°53'0 0.1
2016-Jun-21 20:31N 44°04' E 009°53'0 0.0
2016-Jun-21 19:31N 44°04' E 009°53'0 0.0
2016-Jun-21 18:33N 44°04' E 009°53'0 0.0
2016-Jun-21 17:33N 44°04' E 009°53'0 0.0
2016-Jun-21 16:33N 44°04' E 009°53'0 0.0
2016-Jun-21 15:32N 44°04' E 009°53'0 0.0
2016-Jun-21 14:29N 44°04' E 009°53'0 0.0
2016-Jun-21 13:31N 44°04' E 009°53'0 0.0
2016-Jun-21 12:31N 44°04' E 009°53'0 0.0
2016-Jun-21 11:33N 44°04' E 009°53'0 0.0
2016-Jun-21 10:33N 44°04' E 009°53'0 0.0
2016-Jun-21 09:33N 44°04' E 009°53'0 0.1
2016-Jun-21 08:32N 44°04' E 009°53'0 0.1
2016-Jun-21 07:32N 44°04' E 009°53'0 0.0
2016-Jun-21 06:31N 44°04' E 009°53'0 0.0
2016-Jun-21 04:33N 44°04' E 009°53'0 0.0
2016-Jun-21 03:33N 44°04' E 009°53'0 0.0
2016-Jun-21 02:33N 44°04' E 009°53'0 0.0
2016-Jun-21 01:32N 44°04' E 009°53'0 0.0
2016-Jun-21 00:32N 44°04' E 009°53'0 0.0
2016-Jun-20 23:28N 44°04' E 009°53'0 0.0
2016-Jun-20 22:31N 44°04' E 009°53'0 0.0
2016-Jun-20 21:33N 44°04' E 009°53'0 0.0
2016-Jun-20 20:33N 44°04' E 009°53'0 0.1
2016-Jun-20 19:32N 44°04' E 009°53'0 0.0
2016-Jun-20 18:32N 44°04' E 009°53'0 0.0
2016-Jun-20 17:32N 44°04' E 009°53'0 0.1
2016-Jun-20 16:31N 44°04' E 009°53'0 0.1
2016-Jun-20 15:28N 44°04' E 009°53'0 0.1
2016-Jun-20 14:33N 44°04' E 009°53'0 0.0
2016-Jun-20 13:33N 44°04' E 009°53'0 0.0
2016-Jun-20 12:32N 44°04' E 009°53'0 0.0
2016-Jun-20 11:29N 44°04' E 009°53'0 0.0
2016-Jun-20 10:32N 44°04' E 009°53'0 0.1
2016-Jun-20 09:31N 44°04' E 009°53'0 0.0
2016-Jun-20 08:31N 44°04' E 009°53'0 0.1
2016-Jun-20 07:33N 44°04' E 009°53'0 0.0
2016-Jun-20 06:33N 44°04' E 009°53'0 0.0
2016-Jun-20 05:26N 44°04' E 009°53'0 0.1
2016-Jun-20 04:32N 44°04' E 009°53'0 0.0
2016-Jun-20 03:32N 44°04' E 009°53'0 0.0
2016-Jun-20 02:28N 44°04' E 009°53'0 0.0
2016-Jun-20 01:31N 44°04' E 009°53'0 0.0
2016-Jun-20 00:33N 44°04' E 009°53'0 0.0
2016-Jun-19 23:33N 44°04' E 009°53'0 0.1
2016-Jun-19 22:32N 44°04' E 009°53'0 0.1
2016-Jun-19 21:32N 44°04' E 009°53'0 0.1
2016-Jun-19 20:31N 44°04' E 009°53'0 0.0
2016-Jun-19 19:28N 44°04' E 009°53'0 0.0
2016-Jun-19 18:31N 44°04' E 009°53'0 0.0
2016-Jun-19 17:33N 44°04' E 009°53'0 0.1
2016-Jun-19 16:33N 44°04' E 009°53'0 0.0
2016-Jun-19 15:32N 44°04' E 009°53'0 0.1
2016-Jun-19 14:32N 44°04' E 009°53'0 0.0
2016-Jun-19 13:31N 44°04' E 009°53'0 0.1
2016-Jun-19 12:31N 44°04' E 009°53'0 0.0
2016-Jun-19 11:31N 44°04' E 009°53'0 0.0
2016-Jun-19 10:33N 44°04' E 009°53'0 0.0
2016-Jun-19 09:33N 44°04' E 009°53'0 0.0
2016-Jun-19 08:32N 44°04' E 009°53'0 0.0
2016-Jun-19 07:32N 44°04' E 009°53'0 0.0
2016-Jun-19 06:31N 44°04' E 009°53'0 0.0
2016-Jun-19 05:31N 44°04' E 009°53'0 0.0
2016-Jun-19 04:31N 44°04' E 009°53'0 0.0
2016-Jun-19 03:33N 44°04' E 009°53'0 0.0
2016-Jun-19 02:33N 44°04' E 009°53'0 0.0
2016-Jun-19 01:32N 44°04' E 009°53'0 0.0
2016-Jun-19 00:29N 44°04' E 009°53'0 0.1
2016-Jun-18 23:31N 44°04' E 009°53'0 0.0
2016-Jun-18 22:31N 44°04' E 009°53'0 0.1
2016-Jun-18 21:34N 44°04' E 009°53'0 0.1
2016-Jun-18 20:33N 44°04' E 009°53'0 0.0
2016-Jun-18 19:33N 44°04' E 009°53'0 0.0
2016-Jun-18 18:32N 44°04' E 009°53'0 0.0
2016-Jun-18 17:32N 44°04' E 009°53'0 0.0
2016-Jun-18 16:28N 44°04' E 009°53'0 0.0
2016-Jun-18 15:31N 44°04' E 009°53'0 0.0
2016-Jun-18 14:33N 44°04' E 009°53'0 0.0
2016-Jun-18 13:33N 44°04' E 009°53'0 0.0
2016-Jun-18 12:33N 44°04' E 009°53'0 0.0
2016-Jun-18 11:29N 44°04' E 009°53'0 0.0
2016-Jun-18 10:32N 44°04' E 009°53'0 0.0
2016-Jun-18 09:31N 44°04' E 009°53'0 0.0
2016-Jun-18 08:31N 44°04' E 009°53'0 0.1
2016-Jun-18 07:33N 44°04' E 009°53'0 0.1
2016-Jun-18 06:30N 44°04' E 009°53'0 0.0
2016-Jun-18 05:33N 44°04' E 009°53'0 0.0
2016-Jun-18 04:29N 44°04' E 009°53'1 1.4
2016-Jun-18 03:33N 44°02' E 009°54'1312.7
2016-Jun-18 02:34N 43°51' E 010°02'1413.7
2016-Jun-18 01:34N 43°40' E 009°51'1514.6
2016-Jun-18 00:34N 43°30' E 009°37'1514.6
2016-Jun-17 23:33N 43°19' E 009°22'1514.8
2016-Jun-17 22:34N 43°08' E 009°09'1413.6
2016-Jun-17 21:33N 42°58' E 008°56'1615.4
2016-Jun-17 20:32N 42°47' E 008°41'1515.1
2016-Jun-17 19:34N 42°39' E 008°25'1514.6
2016-Jun-17 18:33N 42°27' E 008°13'25814.1
2016-Jun-17 00:17N 39°24' E 004°12'31 9.7
2016-Jun-16 21:08N 39°05' E 003°42'2515.3
2016-Jun-16 19:32N 38°49' E 003°18'1212.0
2016-Jun-16 18:33N 38°58' E 003°28'1110.3
2016-Jun-16 17:27N 38°50' E 003°17'1 1.6
2016-Jun-16 16:33N 38°49' E 003°16'  

Dump ship's entire track history